Time;durP1;ratioP1;P1;durP2;ratioP2;P2;SDS_P1;SDS_P2;PMS_P1;PMS_P2;Temp;Humidity;BMP_temperature;BMP_pressure;BME280_temperature;BME280_humidity;BME280_pressure;Samples;Min_cycle;Max_cycle;Signal;HPM_P1;HPM_P2
2023/06/02 00:01:40;;;;;;;10.07;4.87;;;14.70;1.00;;;;;;4990792;28;20464;-76
2023/06/02 00:04:08;;;;;;;9.43;4.10;;;14.60;1.00;;;;;;4989351;28;20493;-77
2023/06/02 00:06:37;;;;;;;11.97;6.00;;;14.50;1.00;;;;;;4987556;28;20478;-77
2023/06/02 00:09:05;;;;;;;9.50;4.40;;;14.50;1.00;;;;;;4982287;28;20469;-77
2023/06/02 00:11:34;;;;;;;11.40;4.47;;;14.50;1.00;;;;;;4985242;28;20486;-78
2023/06/02 00:14:03;;;;;;;8.03;4.67;;;14.50;1.00;;;;;;4987578;28;20504;-77
2023/06/02 00:16:34;;;;;;;11.50;4.47;;;14.50;1.00;;;;;;4989069;28;20546;-77
2023/06/02 00:19:01;;;;;;;6.70;4.17;;;14.40;1.00;;;;;;4977869;28;20585;-78
2023/06/02 00:21:28;;;;;;;7.83;4.63;;;14.40;1.00;;;;;;4980662;28;20473;-78
2023/06/02 00:23:55;;;;;;;8.23;4.77;;;14.30;1.00;;;;;;4986011;28;20442;-77
2023/06/02 00:26:22;;;;;;;12.03;5.63;;;14.30;1.00;;;;;;4987139;28;20469;-77
2023/06/02 00:28:51;;;;;;;15.17;4.93;;;14.20;1.00;;;;;;4989830;28;20481;-77
2023/06/02 00:31:18;;;;;;;16.50;4.30;;;14.10;1.00;;;;;;4989658;28;20487;-77
2023/06/02 00:33:47;;;;;;;12.93;5.17;;;14.10;1.00;;;;;;4987180;28;20467;-76
2023/06/02 00:36:14;;;;;;;13.77;5.10;;;14.00;1.00;;;;;;4944446;28;20946;-73
2023/06/02 00:38:43;;;;;;;8.23;4.37;;;14.00;1.00;;;;;;4984286;28;20493;-73
2023/06/02 00:41:10;;;;;;;8.50;4.90;;;14.00;1.00;;;;;;4983132;28;20469;-74
2023/06/02 00:43:37;;;;;;;13.53;4.90;;;13.90;1.00;;;;;;4985465;28;21564;-73
2023/06/02 00:46:04;;;;;;;11.47;5.37;;;13.90;1.00;;;;;;4987572;28;20556;-73
2023/06/02 00:48:31;;;;;;;9.10;4.30;;;13.90;1.00;;;;;;4984726;28;20497;-73
2023/06/02 00:50:59;;;;;;;13.57;5.33;;;13.80;1.00;;;;;;4984291;28;20456;-72
2023/06/02 00:53:26;;;;;;;12.17;4.77;;;13.80;1.00;;;;;;4984369;28;20587;-73
2023/06/02 00:55:53;;;;;;;12.30;4.87;;;13.80;1.00;;;;;;4984232;28;20561;-73
2023/06/02 00:58:21;;;;;;;11.80;4.97;;;13.70;1.00;;;;;;4985101;28;20481;-73
2023/06/02 01:00:48;;;;;;;11.63;5.40;;;13.70;1.00;;;;;;4982343;28;20469;-68
2023/06/02 01:03:15;;;;;;;9.80;5.00;;;13.70;1.00;;;;;;4991098;23;20494;-72
2023/06/02 01:05:43;;;;;;;9.73;5.17;;;13.70;1.00;;;;;;4944375;28;20558;-72
2023/06/02 01:08:13;;;;;;;11.07;5.27;;;13.60;1.00;;;;;;4940183;28;20984;-74
2023/06/02 01:10:41;;;;;;;10.23;4.70;;;13.60;1.00;;;;;;4939241;28;20473;-72
2023/06/02 01:13:09;;;;;;;12.80;5.23;;;13.60;1.00;;;;;;4942930;28;20490;-73
2023/06/02 01:15:35;;;;;;;8.87;4.50;;;13.50;1.00;;;;;;4942258;28;20467;-73
2023/06/02 01:18:08;;;;;;;13.00;5.50;;;13.50;1.00;;;;;;4938378;28;20953;-73
2023/06/02 01:20:37;;;;;;;10.03;5.10;;;13.50;1.00;;;;;;4934808;28;20665;-73
2023/06/02 01:23:15;;;;;;;8.00;4.43;;;13.40;1.00;;;;;;4942739;28;20892;-73
2023/06/02 01:25:44;;;;;;;9.37;5.77;;;13.40;1.00;;;;;;4944088;28;20471;-73
2023/06/02 01:28:11;;;;;;;7.97;5.23;;;13.30;1.00;;;;;;4941568;28;20510;-73
2023/06/02 01:30:38;;;;;;;14.80;5.10;;;13.30;1.00;;;;;;4943992;28;20516;-73
2023/06/02 01:33:11;;;;;;;9.10;5.10;;;13.30;1.00;;;;;;4942095;28;20510;-73
2023/06/02 01:35:44;;;;;;;12.80;4.93;;;13.20;1.00;;;;;;4941143;28;20494;-73
2023/06/02 01:38:13;;;;;;;9.37;5.37;;;13.20;1.00;;;;;;4942570;28;20481;-72
2023/06/02 01:40:41;;;;;;;9.87;5.83;;;13.20;1.00;;;;;;4936875;28;20490;-73
2023/06/02 01:43:11;;;;;;;16.33;6.20;;;13.10;1.00;;;;;;4943320;28;20560;-73
2023/06/02 01:45:39;;;;;;;15.43;5.50;;;13.10;1.00;;;;;;4944363;28;20474;-73
2023/06/02 01:48:08;;;;;;;15.50;4.87;;;13.10;1.00;;;;;;4944471;28;21365;-73
2023/06/02 01:50:37;;;;;;;9.77;5.10;;;13.00;1.00;;;;;;4940400;28;20982;-73
2023/06/02 01:53:04;;;;;;;12.43;5.23;;;13.10;1.00;;;;;;4940100;28;21294;-73
2023/06/02 01:55:31;;;;;;;11.20;4.90;;;13.00;1.00;;;;;;4942648;28;21246;-73
2023/06/02 01:57:58;;;;;;;10.73;6.00;;;13.00;1.00;;;;;;4942989;28;21407;-72
2023/06/02 02:00:27;;;;;;;12.93;4.83;;;13.00;1.00;;;;;;4945740;28;20464;-73
2023/06/02 02:02:54;;;;;;;8.30;4.80;;;12.90;1.00;;;;;;4945387;28;20474;-73
2023/06/02 02:05:22;;;;;;;12.17;5.77;;;12.80;1.00;;;;;;4946354;28;20458;-73
2023/06/02 02:07:50;;;;;;;11.80;5.13;;;12.80;1.00;;;;;;4943979;28;21044;-73
2023/06/02 02:10:18;;;;;;;11.63;5.50;;;12.80;1.00;;;;;;4935745;28;20483;-72
2023/06/02 02:12:45;;;;;;;6.17;5.10;;;12.70;1.00;;;;;;4936530;28;20974;-73
2023/06/02 02:15:12;;;;;;;19.43;6.30;;;12.70;1.00;;;;;;4944116;28;21212;-73
2023/06/02 02:17:44;;;;;;;13.27;6.13;;;12.70;1.00;;;;;;4942962;28;20495;-73
2023/06/02 02:20:16;;;;;;;13.03;6.60;;;12.70;1.00;;;;;;4939861;28;20450;-72
2023/06/02 02:22:43;;;;;;;13.40;5.50;;;12.60;1.00;;;;;;4943109;28;20468;-73
2023/06/02 02:25:10;;;;;;;10.30;6.33;;;12.60;1.00;;;;;;4940204;28;20459;-72
2023/06/02 02:27:38;;;;;;;13.97;5.20;;;12.60;1.00;;;;;;4941596;28;20908;-72
2023/06/02 02:30:06;;;;;;;9.47;5.10;;;12.60;1.00;;;;;;4939180;28;20854;-72
2023/06/02 02:32:36;;;;;;;11.20;5.33;;;12.50;1.00;;;;;;4948429;28;20966;-72
2023/06/02 02:35:05;;;;;;;13.43;5.90;;;12.50;1.00;;;;;;4945878;28;20469;-72
2023/06/02 02:37:32;;;;;;;14.37;5.73;;;12.50;1.00;;;;;;4942715;28;20832;-72
2023/06/02 02:39:59;;;;;;;10.77;4.90;;;12.50;1.00;;;;;;4939016;28;20585;-72
2023/06/02 02:42:26;;;;;;;16.10;5.97;;;12.40;1.00;;;;;;4941350;28;20544;-72
2023/06/02 02:44:53;;;;;;;11.30;5.47;;;12.40;1.00;;;;;;4944501;28;20529;-72
2023/06/02 02:47:20;;;;;;;16.73;7.93;;;12.40;1.00;;;;;;4949193;28;20496;-73
2023/06/02 02:49:47;;;;;;;11.80;5.60;;;12.30;1.00;;;;;;4944894;28;20532;-73
2023/06/02 02:52:15;;;;;;;13.90;6.07;;;12.30;1.00;;;;;;4943801;28;20547;-72
2023/06/02 02:54:42;;;;;;;13.00;5.37;;;12.30;1.00;;;;;;4946561;28;21009;-73
2023/06/02 02:57:09;;;;;;;13.40;5.13;;;12.30;1.00;;;;;;4943776;28;20556;-73
2023/06/02 02:59:37;;;;;;;12.70;4.80;;;12.20;1.00;;;;;;4945548;28;20481;-74
2023/06/02 03:02:06;;;;;;;14.47;6.13;;;12.20;1.00;;;;;;4943267;28;20545;-73
2023/06/02 03:04:34;;;;;;;15.70;5.70;;;12.20;1.00;;;;;;4944626;28;20461;-73
2023/06/02 03:07:02;;;;;;;12.07;5.10;;;12.20;1.00;;;;;;4943361;28;20478;-73
2023/06/02 03:09:31;;;;;;;8.90;5.40;;;12.30;1.00;;;;;;4941405;28;20466;-73
2023/06/02 03:11:58;;;;;;;12.57;5.80;;;12.30;1.00;;;;;;4940632;28;20485;-74
2023/06/02 03:14:29;;;;;;;11.67;5.73;;;12.30;1.00;;;;;;4941143;28;20463;-73
2023/06/02 03:16:57;;;;;;;14.20;5.40;;;12.30;1.00;;;;;;4947128;28;20497;-72
2023/06/02 03:19:26;;;;;;;10.87;5.47;;;12.30;1.00;;;;;;4936799;28;20462;-72
2023/06/02 03:21:55;;;;;;;17.17;6.00;;;12.20;1.00;;;;;;4942453;28;20484;-72
2023/06/02 03:24:22;;;;;;;11.50;4.83;;;12.20;1.00;;;;;;4941536;28;20457;-72
2023/06/02 03:26:55;;;;;;;9.43;5.20;;;12.10;1.00;;;;;;4934604;28;20481;-71
2023/06/02 03:29:25;;;;;;;16.40;6.00;;;12.10;1.00;;;;;;4941099;28;20576;-71
2023/06/02 03:31:53;;;;;;;9.73;5.07;;;12.10;1.00;;;;;;4939811;28;20502;-72
2023/06/02 03:34:20;;;;;;;12.30;5.70;;;12.10;1.00;;;;;;4941685;28;20476;-72
2023/06/02 03:36:48;;;;;;;11.50;5.90;;;12.20;1.00;;;;;;4945646;28;20891;-72
2023/06/02 03:39:15;;;;;;;12.17;5.60;;;12.20;1.00;;;;;;4940568;28;20615;-73
2023/06/02 03:41:42;;;;;;;13.13;5.43;;;12.30;1.00;;;;;;4937753;28;20489;-73
2023/06/02 03:44:11;;;;;;;13.20;5.50;;;12.30;1.00;;;;;;4945591;28;20536;-72
2023/06/02 03:46:38;;;;;;;13.80;5.77;;;12.30;1.00;;;;;;4939383;28;23315;-73
2023/06/02 03:49:05;;;;;;;14.27;6.13;;;12.30;1.00;;;;;;4939227;28;20538;-73
2023/06/02 03:51:31;;;;;;;18.00;6.80;;;12.40;1.00;;;;;;4940994;28;20856;-72
2023/06/02 03:53:58;;;;;;;10.20;5.20;;;12.60;1.00;;;;;;4947081;28;20502;-73
2023/06/02 03:56:28;;;;;;;18.20;7.30;;;12.70;1.00;;;;;;4940126;28;20472;-74
2023/06/02 03:58:55;;;;;;;8.90;5.47;;;12.70;1.00;;;;;;4940083;28;20458;-73
2023/06/02 04:01:23;;;;;;;16.23;6.70;;;12.80;1.00;;;;;;4944759;28;20467;-73
2023/06/02 04:03:50;;;;;;;9.57;5.20;;;12.90;1.00;;;;;;4937877;28;20473;-72
2023/06/02 04:06:17;;;;;;;9.27;6.00;;;13.00;1.00;;;;;;4941280;28;20575;-72
2023/06/02 04:08:45;;;;;;;15.70;6.00;;;13.20;1.00;;;;;;4944274;28;22186;-72
2023/06/02 04:11:12;;;;;;;9.43;5.60;;;13.30;1.00;;;;;;4937103;28;20557;-72
2023/06/02 04:13:39;;;;;;;12.73;6.07;;;13.30;1.00;;;;;;4939398;28;20498;-73
2023/06/02 04:16:07;;;;;;;9.10;5.63;;;13.30;1.00;;;;;;4942748;28;20471;-72
2023/06/02 04:18:37;;;;;;;14.03;8.27;;;13.30;1.00;;;;;;4937719;28;20585;-72
2023/06/02 04:21:04;;;;;;;11.83;6.37;;;13.30;1.00;;;;;;4934844;28;20550;-72
2023/06/02 04:23:31;;;;;;;18.67;6.27;;;13.40;1.00;;;;;;4936320;28;20674;-73
2023/06/02 04:25:58;;;;;;;10.00;5.20;;;13.40;1.00;;;;;;4938895;28;21262;-72
2023/06/02 04:28:25;;;;;;;12.40;5.10;;;13.50;1.00;;;;;;4936700;28;20463;-72
2023/06/02 04:30:54;;;;;;;11.47;5.53;;;13.50;1.00;;;;;;4936738;28;20970;-73
2023/06/02 04:33:21;;;;;;;16.87;6.20;;;13.50;1.00;;;;;;4943982;28;20467;-73
2023/06/02 04:35:50;;;;;;;9.37;4.53;;;13.50;1.00;;;;;;4942294;28;20484;-73
2023/06/02 04:38:20;;;;;;;11.50;6.20;;;13.40;1.00;;;;;;4941824;28;20510;-72
2023/06/02 04:40:47;;;;;;;12.83;6.30;;;13.30;1.00;;;;;;4937912;28;21020;-72
2023/06/02 04:43:15;;;;;;;15.67;5.60;;;13.30;1.00;;;;;;4941820;28;20612;-72
2023/06/02 04:45:43;;;;;;;14.17;6.80;;;13.20;1.00;;;;;;4940839;28;20496;-71
2023/06/02 04:48:11;;;;;;;14.47;5.87;;;13.20;1.00;;;;;;4946378;28;20455;-72
2023/06/02 04:50:38;;;;;;;13.70;5.40;;;13.30;1.00;;;;;;4941167;28;20470;-72
2023/06/02 04:53:06;;;;;;;16.70;7.13;;;13.40;1.00;;;;;;4937847;28;20570;-72
2023/06/02 04:55:33;;;;;;;13.60;5.80;;;13.50;1.00;;;;;;4942693;28;20491;-72
2023/06/02 04:58:00;;;;;;;15.10;6.70;;;13.60;1.00;;;;;;4942412;28;20462;-73
2023/06/02 05:00:28;;;;;;;15.20;7.20;;;13.80;1.00;;;;;;4948694;28;20537;-74
2023/06/02 05:02:55;;;;;;;10.67;5.90;;;13.80;1.00;;;;;;4949283;28;20527;-73
2023/06/02 05:05:22;;;;;;;11.10;6.47;;;13.90;1.00;;;;;;4947833;28;20611;-72
2023/06/02 05:07:49;;;;;;;8.93;5.20;;;13.90;1.00;;;;;;4944528;28;20985;-73
2023/06/02 05:10:17;;;;;;;11.60;5.17;;;14.00;1.00;;;;;;4947767;28;20521;-73
2023/06/02 05:12:47;;;;;;;14.27;6.47;;;14.00;1.00;;;;;;4943014;28;20886;-72
2023/06/02 05:15:14;;;;;;;13.20;6.80;;;14.00;1.00;;;;;;4945633;28;20552;-72
2023/06/02 05:17:43;;;;;;;23.10;6.77;;;14.10;1.00;;;;;;4946467;28;20489;-72
2023/06/02 05:20:11;;;;;;;13.37;7.10;;;14.30;1.00;;;;;;4946882;28;21684;-72
2023/06/02 05:22:38;;;;;;;8.43;5.30;;;14.40;1.00;;;;;;4946209;28;20491;-73
2023/06/02 05:25:05;;;;;;;14.33;5.80;;;14.50;1.00;;;;;;4947910;28;20571;-73
2023/06/02 05:27:34;;;;;;;13.07;6.23;;;14.70;1.00;;;;;;4947593;28;21455;-73
2023/06/02 05:30:01;;;;;;;26.87;7.10;;;14.80;1.00;;;;;;4944089;28;20471;-73
2023/06/02 05:32:28;;;;;;;14.27;7.77;;;14.90;1.00;;;;;;4945549;28;20455;-73
2023/06/02 05:34:55;;;;;;;10.23;6.50;;;15.00;1.00;;;;;;4949378;28;20570;-72
2023/06/02 05:37:22;;;;;;;13.50;5.37;;;15.00;1.00;;;;;;4946557;28;20503;-72
2023/06/02 05:39:49;;;;;;;15.77;6.53;;;15.10;1.00;;;;;;4944769;28;21055;-72
2023/06/02 05:42:19;;;;;;;14.13;7.10;;;15.20;1.00;;;;;;4943637;28;20454;-75
2023/06/02 05:44:48;;;;;;;16.77;7.40;;;15.20;1.00;;;;;;4945706;28;20582;-73
2023/06/02 05:47:15;;;;;;;13.70;5.80;;;15.20;1.00;;;;;;4944169;28;20470;-74
2023/06/02 05:49:42;;;;;;;15.47;8.50;;;15.20;1.00;;;;;;4940602;28;20571;-74
2023/06/02 05:52:09;;;;;;;13.10;5.80;;;15.20;1.00;;;;;;4940782;28;20491;-75
2023/06/02 05:54:36;;;;;;;15.47;6.83;;;15.10;1.00;;;;;;4944181;28;20591;-74
2023/06/02 05:57:03;;;;;;;11.57;6.37;;;15.10;1.00;;;;;;4940000;28;20493;-75
2023/06/02 05:59:30;;;;;;;12.77;6.30;;;15.10;1.00;;;;;;4943965;28;20491;-74
2023/06/02 06:01:58;;;;;;;13.80;6.50;;;15.00;1.00;;;;;;4942838;28;20490;-75
2023/06/02 06:04:25;;;;;;;13.47;5.63;;;15.00;1.00;;;;;;4940839;28;20501;-77
2023/06/02 06:06:53;;;;;;;14.30;6.20;;;15.00;1.00;;;;;;4926815;28;20468;-74
2023/06/02 06:09:19;;;;;;;15.13;7.03;;;15.00;1.00;;;;;;4943950;28;20478;-74
2023/06/02 06:11:47;;;;;;;21.90;6.97;;;14.90;1.00;;;;;;4941666;28;20602;-74
2023/06/02 06:14:13;;;;;;;15.20;5.83;;;14.80;1.00;;;;;;4939918;28;20574;-73
2023/06/02 06:16:41;;;;;;;14.30;6.40;;;14.80;1.00;;;;;;4938711;28;20571;-75
2023/06/02 06:19:09;;;;;;;16.83;5.93;;;14.70;1.00;;;;;;4941141;28;21332;-74
2023/06/02 06:21:37;;;;;;;16.27;8.63;;;14.70;1.00;;;;;;4940572;28;20460;-73
2023/06/02 06:24:04;;;;;;;19.27;8.20;;;14.60;1.00;;;;;;4943748;28;20483;-74
2023/06/02 06:26:32;;;;;;;16.50;6.10;;;14.60;1.00;;;;;;4929238;28;20475;-73
2023/06/02 06:29:03;;;;;;;11.13;6.77;;;14.50;1.00;;;;;;4940157;28;20475;-74
2023/06/02 06:31:32;;;;;;;14.53;7.13;;;14.60;1.00;;;;;;4937725;28;20486;-75
2023/06/02 06:33:59;;;;;;;15.53;7.33;;;14.50;1.00;;;;;;4940212;28;20484;-74
2023/06/02 06:36:27;;;;;;;25.50;7.73;;;14.50;1.00;;;;;;4939615;28;20464;-75
2023/06/02 06:38:54;;;;;;;14.03;6.60;;;14.50;1.00;;;;;;4942513;28;20603;-74
2023/06/02 06:41:22;;;;;;;12.57;6.33;;;14.40;1.00;;;;;;4938481;28;20540;-74
2023/06/02 06:43:49;;;;;;;20.10;6.43;;;14.40;1.00;;;;;;4934325;28;20494;-74
2023/06/02 06:46:17;;;;;;;18.97;6.97;;;14.40;1.00;;;;;;4935190;28;20522;-74
2023/06/02 06:48:44;;;;;;;11.93;6.70;;;14.50;1.00;;;;;;4942608;28;20468;-74
2023/06/02 06:51:10;;;;;;;13.67;7.70;;;14.60;1.00;;;;;;4938456;28;20468;-74
2023/06/02 06:53:39;;;;;;;11.67;7.13;;;14.70;1.00;;;;;;4945213;28;21053;-74
2023/06/02 06:56:06;;;;;;;13.67;7.00;;;14.80;1.00;;;;;;4936904;28;20453;-75
2023/06/02 06:58:33;;;;;;;16.30;7.00;;;15.00;1.00;;;;;;4936451;28;20476;-74
2023/06/02 07:01:00;;;;;;;14.27;6.90;;;15.20;1.00;;;;;;4942243;28;20670;-74
2023/06/02 07:03:27;;;;;;;15.07;6.70;;;15.30;1.00;;;;;;4938333;28;21003;-75
2023/06/02 07:05:54;;;;;;;14.63;6.50;;;15.40;1.00;;;;;;4940232;28;20463;-75
2023/06/02 07:08:21;;;;;;;13.50;7.17;;;15.50;1.00;;;;;;4942475;28;20463;-74
2023/06/02 07:10:49;;;;;;;13.70;7.63;;;15.70;1.00;;;;;;4942142;28;20457;-74
2023/06/02 07:13:17;;;;;;;12.10;8.10;;;15.90;1.00;;;;;;4944818;28;20484;-74
2023/06/02 07:15:44;;;;;;;15.17;8.30;;;16.10;1.00;;;;;;4944152;28;20483;-73
2023/06/02 07:18:11;;;;;;;21.43;8.43;;;16.10;1.00;;;;;;4942579;28;20473;-74
2023/06/02 07:20:41;;;;;;;18.00;7.97;;;16.20;1.00;;;;;;4938236;28;20883;-76
2023/06/02 07:23:08;;;;;;;16.87;9.07;;;16.20;1.00;;;;;;4939623;28;20480;-73
2023/06/02 07:25:36;;;;;;;17.10;8.87;;;16.30;1.00;;;;;;4941453;28;20463;-74
2023/06/02 07:28:05;;;;;;;24.40;17.10;;;16.50;1.00;;;;;;4938289;28;20453;-74
2023/06/02 07:30:32;;;;;;;11.90;8.57;;;16.60;1.00;;;;;;4942412;28;20469;-74
2023/06/02 07:32:59;;;;;;;22.80;11.53;;;16.70;1.00;;;;;;4940773;28;20580;-75
2023/06/02 07:35:26;;;;;;;14.80;10.77;;;16.80;1.00;;;;;;4940709;28;20913;-73
2023/06/02 07:37:54;;;;;;;13.60;10.27;;;16.90;1.00;;;;;;4940101;28;20468;-73
2023/06/02 07:40:21;;;;;;;15.20;8.70;;;17.10;1.00;;;;;;4935567;28;20524;-74
2023/06/02 07:42:48;;;;;;;18.63;8.60;;;17.00;1.00;;;;;;4942428;28;21012;-75
2023/06/02 07:45:17;;;;;;;18.97;8.63;;;17.00;1.00;;;;;;4937297;28;20457;-75
2023/06/02 07:47:45;;;;;;;16.00;9.00;;;16.90;1.00;;;;;;4938273;28;20523;-73
2023/06/02 07:50:12;;;;;;;15.30;7.90;;;16.80;1.00;;;;;;4941881;28;20545;-77
2023/06/02 07:52:39;;;;;;;16.47;7.70;;;16.70;1.00;;;;;;4938490;28;20484;-72
2023/06/02 07:55:07;;;;;;;15.03;8.37;;;16.80;1.00;;;;;;4940636;28;20512;-74
2023/06/02 07:57:34;;;;;;;13.13;8.60;;;16.90;1.00;;;;;;4938804;28;20464;-73
2023/06/02 08:00:10;;;;;;;12.47;8.13;;;16.90;1.00;;;;;;4939111;28;20488;-73
2023/06/02 08:02:40;;;;;;;16.10;9.17;;;16.90;1.00;;;;;;4938839;28;20480;-74
2023/06/02 08:05:07;;;;;;;16.37;7.47;;;17.00;1.00;;;;;;4936601;28;20492;-74
2023/06/02 08:07:34;;;;;;;13.30;8.23;;;17.20;1.00;;;;;;4940141;28;20469;-76
2023/06/02 08:10:01;;;;;;;16.30;7.20;;;17.30;1.00;;;;;;4936175;28;20520;-73
2023/06/02 08:12:29;;;;;;;10.77;6.90;;;17.40;1.00;;;;;;4940646;28;20473;-73
2023/06/02 08:14:55;;;;;;;11.90;6.47;;;17.30;1.00;;;;;;4942910;28;20465;-75
2023/06/02 08:17:28;;;;;;;11.23;6.80;;;17.00;1.00;;;;;;4943999;28;21040;-75
2023/06/02 08:19:58;;;;;;;8.47;6.30;;;17.10;1.00;;;;;;4935916;28;20453;-74
2023/06/02 08:22:27;;;;;;;10.33;6.23;;;17.20;1.00;;;;;;4940642;28;20466;-73
2023/06/02 08:24:54;;;;;;;38.77;31.50;;;17.30;1.00;;;;;;4937782;28;20476;-75
2023/06/02 08:27:21;;;;;;;8.27;5.65;;;17.40;1.00;;;;;;4939022;28;20426;-76
2023/06/02 08:29:49;;;;;;;9.70;5.53;;;17.50;1.00;;;;;;4938331;28;20244;-76
2023/06/02 08:32:17;;;;;;;8.00;6.37;;;17.50;1.00;;;;;;4942263;28;20518;-77
2023/06/02 08:34:45;;;;;;;6.70;5.13;;;17.50;1.00;;;;;;4944248;28;20458;-76
2023/06/02 08:37:16;;;;;;;11.00;5.30;;;17.40;1.00;;;;;;4942245;28;21763;-76
2023/06/02 08:39:43;;;;;;;9.53;5.00;;;17.40;1.00;;;;;;4935052;28;20484;-74
2023/06/02 08:42:12;;;;;;;8.40;5.77;;;17.50;1.00;;;;;;4940628;28;20474;-76
2023/06/02 08:44:39;;;;;;;9.30;6.03;;;17.60;1.00;;;;;;4940112;28;20492;-76
2023/06/02 08:47:10;;;;;;;7.23;5.80;;;17.90;1.00;;;;;;4940253;28;20457;-77
2023/06/02 08:49:37;;;;;;;7.90;5.60;;;18.10;1.00;;;;;;4941280;28;21338;-76
2023/06/02 08:52:10;;;;;;;11.80;6.20;;;18.20;1.00;;;;;;4938539;28;20573;-75
2023/06/02 08:54:41;;;;;;;7.87;6.40;;;18.40;1.00;;;;;;4939769;28;20616;-75
2023/06/02 08:57:09;;;;;;;9.47;6.40;;;18.50;1.00;;;;;;4939046;28;21127;-75
2023/06/02 08:59:37;;;;;;;7.50;6.80;;;18.80;1.00;;;;;;4941794;28;20973;-76
2023/06/02 09:02:04;;;;;;;9.30;7.40;;;19.20;1.00;;;;;;4937169;28;20995;-77
2023/06/02 09:04:31;;;;;;;6.77;6.13;;;19.70;1.00;;;;;;4937499;28;20464;-73
2023/06/02 09:07:22;;;;;;;8.47;6.53;;;19.90;1.00;;;;;;4935950;28;20921;-73
2023/06/02 09:09:52;;;;;;;7.83;6.73;;;20.00;1.00;;;;;;4903052;28;20481;-74
2023/06/02 09:12:19;;;;;;;6.20;5.70;;;20.00;1.00;;;;;;4941927;28;20472;-74
2023/06/02 09:14:48;;;;;;;5.23;4.83;;;20.30;1.00;;;;;;4944881;28;20536;-73
2023/06/02 09:17:25;;;;;;;6.17;5.67;;;20.30;1.00;;;;;;4940648;28;20930;-73
2023/06/02 09:19:54;;;;;;;6.87;5.50;;;20.30;1.00;;;;;;4939889;28;20933;-74
2023/06/02 09:22:21;;;;;;;6.43;5.83;;;20.40;1.00;;;;;;4927195;28;20472;-74
2023/06/02 09:24:48;;;;;;;6.23;5.07;;;20.50;1.00;;;;;;4911795;28;20491;-73
2023/06/02 09:27:17;;;;;;;7.53;4.07;;;20.70;1.00;;;;;;4937165;28;20456;-74
2023/06/02 09:29:45;;;;;;;36.07;8.73;;;21.10;1.00;;;;;;4942634;28;20469;-74
2023/06/02 09:32:14;;;;;;;6.93;3.00;;;21.70;1.00;;;;;;4941995;28;20482;-73
2023/06/02 09:34:43;;;;;;;11.03;4.10;;;22.20;1.00;;;;;;4943441;28;20619;-73
2023/06/02 09:37:12;;;;;;;3.50;1.97;;;22.60;1.00;;;;;;4942261;28;20460;-74
2023/06/02 09:39:42;;;;;;;2.10;1.90;;;22.80;1.00;;;;;;4939758;28;20491;-74
2023/06/02 09:42:09;;;;;;;4.83;2.40;;;22.70;1.00;;;;;;4941408;28;20445;-74
2023/06/02 09:44:38;;;;;;;2.07;1.67;;;23.50;1.00;;;;;;4934743;28;20534;-73
2023/06/02 09:47:20;;;;;;;2.40;1.60;;;24.40;1.00;;;;;;4939130;28;21041;-75
2023/06/02 09:49:47;;;;;;;1.90;1.70;;;25.10;1.00;;;;;;4939513;28;21007;-75
2023/06/02 09:52:15;;;;;;;3.83;2.23;;;25.40;1.00;;;;;;4933453;28;20869;-76
2023/06/02 09:54:44;;;;;;;3.23;1.90;;;26.10;1.00;;;;;;4934611;28;20475;-74
2023/06/02 09:57:15;;;;;;;2.30;2.00;;;26.90;1.00;;;;;;4941651;28;20480;-76
2023/06/02 09:59:44;;;;;;;2.97;2.03;;;27.70;1.00;;;;;;4933968;28;20913;-76
2023/06/02 10:02:12;;;;;;;3.53;1.80;;;27.80;1.00;;;;;;4937135;28;20474;-75
2023/06/02 10:04:39;;;;;;;2.50;2.10;;;28.70;1.00;;;;;;4939652;28;20524;-76
2023/06/02 10:07:25;;;;;;;4.90;2.47;;;30.10;1.00;;;;;;4937166;28;20464;-74
2023/06/02 10:10:13;;;;;;;5.00;2.50;;;30.90;1.00;;;;;;4942308;28;20480;-75
2023/06/02 10:12:55;;;;;;;2.00;1.80;;;31.60;1.00;;;;;;4944964;28;20473;-74
2023/06/02 10:15:50;;;;;;;4.37;2.37;;;30.70;1.00;;;;;;4947693;28;20460;-74
2023/06/02 10:18:47;;;;;;;2.60;1.60;;;28.90;1.00;;;;;;4943105;28;20851;-76
2023/06/02 10:21:22;;;;;;;3.03;1.53;;;27.90;1.00;;;;;;4944193;28;20959;-76
2023/06/02 10:23:56;;;;;;;4.57;2.30;;;27.30;1.00;;;;;;4939301;28;20567;-78
2023/06/02 10:26:40;;;;;;;1.67;1.50;;;26.70;1.00;;;;;;4942087;28;20510;-75
2023/06/02 10:29:09;;;;;;;6.70;3.43;;;26.00;1.00;;;;;;4937138;28;20474;-75
2023/06/02 10:31:37;;;;;;;6.37;2.40;;;26.20;1.00;;;;;;4943646;28;20455;-74
2023/06/02 10:34:04;;;;;;;3.90;2.23;;;26.90;1.00;;;;;;4923462;28;20491;-74
2023/06/02 10:37:15;;;;;;;2.83;1.93;;;27.60;1.00;;;;;;4936227;28;20460;-75
2023/06/02 10:39:55;;;;;;;2.30;1.83;;;28.50;1.00;;;;;;4943643;28;20926;-74
2023/06/02 10:42:26;;;;;;;2.77;1.80;;;28.00;1.00;;;;;;4940899;28;21530;-73
2023/06/02 10:44:54;;;;;;;4.30;2.30;;;29.00;1.00;;;;;;4946654;28;20488;-74
2023/06/02 10:47:39;;;;;;;5.57;2.40;;;30.00;1.00;;;;;;4949084;28;20471;-73
2023/06/02 10:50:09;;;;;;;5.87;2.63;;;29.70;1.00;;;;;;4946341;28;20641;-73
2023/06/02 10:53:09;;;;;;;6.07;1.87;;;30.20;1.00;;;;;;4947053;28;20680;-74
2023/06/02 10:55:37;;;;;;;3.10;1.43;;;30.50;1.00;;;;;;4944411;28;20469;-75
2023/06/02 10:58:05;;;;;;;3.97;1.90;;;30.50;1.00;;;;;;4948136;28;20445;-73
2023/06/02 11:00:49;;;;;;;3.73;2.00;;;29.90;1.00;;;;;;4941830;28;20466;-74
2023/06/02 11:03:35;;;;;;;8.17;3.07;;;30.40;1.00;;;;;;4941634;28;20459;-75
2023/06/02 11:06:19;;;;;;;2.90;1.80;;;30.60;1.00;;;;;;4942780;28;20501;-74
2023/06/02 11:08:51;;;;;;;3.90;2.17;;;30.40;1.00;;;;;;4944355;28;20463;-75
2023/06/02 11:11:54;;;;;;;4.80;2.60;;;30.40;1.00;;;;;;4947719;28;21357;-76
2023/06/02 11:14:22;;;;;;;5.00;2.70;;;30.60;1.00;;;;;;4946697;28;20531;-76
2023/06/02 11:17:29;;;;;;;5.63;1.70;;;31.90;1.00;;;;;;4945137;28;20504;-76
2023/06/02 11:19:58;;;;;;;5.77;2.10;;;32.80;1.00;;;;;;4917376;28;21065;-75
2023/06/02 11:22:25;;;;;;;2.80;1.50;;;33.20;1.00;;;;;;4943376;28;20484;-76
2023/06/02 11:24:53;;;;;;;3.60;2.00;;;32.90;1.00;;;;;;4944283;28;20454;-76
2023/06/02 11:27:21;;;;;;;3.17;1.60;;;32.30;1.00;;;;;;4945722;28;20488;-77
2023/06/02 11:30:14;;;;;;;5.67;2.47;;;33.50;1.00;;;;;;4942608;28;20473;-75
2023/06/02 11:32:41;;;;;;;3.33;1.33;;;34.00;1.00;;;;;;4942645;28;20841;-75
2023/06/02 11:35:11;;;;;;;5.40;1.87;;;33.60;1.00;;;;;;4939468;28;20469;-74
2023/06/02 11:37:41;;;;;;;3.50;2.10;;;31.00;1.00;;;;;;4936047;28;20476;-75
2023/06/02 11:40:12;;;;;;;2.20;2.00;;;29.20;1.00;;;;;;4947495;28;20939;-74
2023/06/02 11:42:42;;;;;;;3.80;1.50;;;29.20;1.00;;;;;;4946233;28;20433;-76
2023/06/02 11:45:23;;;;;;;3.33;2.50;;;30.50;1.00;;;;;;4946686;28;20540;-74
2023/06/02 11:47:59;;;;;;;2.40;1.90;;;30.70;1.00;;;;;;4948530;28;20547;-74
2023/06/02 11:50:28;;;;;;;5.40;2.40;;;30.20;1.00;;;;;;4949694;28;21145;-73
2023/06/02 11:52:55;;;;;;;5.60;3.23;;;30.10;1.00;;;;;;4947960;28;20500;-75
2023/06/02 11:55:26;;;;;;;5.40;2.47;;;30.90;1.00;;;;;;4948167;28;20470;-75
2023/06/02 11:57:53;;;;;;;5.43;1.97;;;31.90;1.00;;;;;;4945046;28;20540;-75
2023/06/02 12:00:21;;;;;;;5.50;2.03;;;33.20;1.00;;;;;;4946780;28;20540;-74
2023/06/02 12:02:51;;;;;;;6.60;2.10;;;34.00;1.00;;;;;;4949710;28;20461;-75
2023/06/02 12:05:34;;;;;;;4.93;1.60;;;34.30;1.00;;;;;;4946616;28;20493;-75
2023/06/02 12:08:11;;;;;;;3.83;2.07;;;35.10;1.00;;;;;;4945889;28;20545;-74
2023/06/02 12:10:39;;;;;;;4.40;1.80;;;34.00;1.00;;;;;;4949214;28;20493;-74
2023/06/02 12:13:07;;;;;;;6.30;2.40;;;33.70;1.00;;;;;;4943369;28;20459;-75
2023/06/02 12:15:35;;;;;;;5.77;3.10;;;34.10;1.00;;;;;;4946615;28;20510;-74
2023/06/02 12:18:03;;;;;;;5.37;2.50;;;35.00;1.00;;;;;;4944826;28;20779;-75
2023/06/02 12:20:51;;;;;;;5.40;2.00;;;35.90;1.00;;;;;;4948890;28;20496;-74
2023/06/02 12:23:18;;;;;;;5.33;2.30;;;36.80;1.00;;;;;;4946757;28;21000;-74
2023/06/02 12:25:56;;;;;;;1.73;1.50;;;37.60;1.00;;;;;;4946468;28;20465;-75
2023/06/02 12:28:23;;;;;;;4.40;1.60;;;37.50;1.00;;;;;;4943751;28;20706;-75
2023/06/02 12:30:51;;;;;;;4.13;1.70;;;37.30;1.00;;;;;;4947530;28;20654;-74
2023/06/02 12:33:18;;;;;;;5.93;1.80;;;35.90;1.00;;;;;;4945230;28;20625;-75
2023/06/02 12:35:45;;;;;;;2.80;1.60;;;35.60;1.00;;;;;;4945681;28;20579;-76
2023/06/02 12:38:15;;;;;;;5.13;1.37;;;35.50;1.00;;;;;;4949423;28;20901;-76
2023/06/02 12:40:42;;;;;;;4.93;1.33;;;35.50;1.00;;;;;;4943379;28;20494;-75
2023/06/02 12:43:09;;;;;;;3.53;1.43;;;35.50;1.00;;;;;;4935852;28;20460;-75
2023/06/02 12:45:36;;;;;;;3.33;2.00;;;36.00;1.00;;;;;;4947414;28;20467;-74
2023/06/02 12:48:04;;;;;;;7.33;3.00;;;36.50;1.00;;;;;;4947844;28;20473;-75
2023/06/02 12:50:31;;;;;;;5.90;5.00;;;37.00;1.00;;;;;;4948451;28;20953;-75
2023/06/02 12:52:58;;;;;;;4.20;1.80;;;37.00;1.00;;;;;;4946613;28;20465;-75
2023/06/02 12:55:27;;;;;;;5.67;1.53;;;36.70;1.00;;;;;;4945037;28;20544;-74
2023/06/02 12:57:55;;;;;;;2.77;1.43;;;37.00;1.00;;;;;;4943283;28;20484;-74
2023/06/02 13:00:22;;;;;;;2.07;1.37;;;36.90;1.00;;;;;;4948372;28;20525;-74
2023/06/02 13:02:49;;;;;;;4.43;1.90;;;36.20;1.00;;;;;;4944851;28;20507;-75